createdAt,value
2024-03-01T00:05:41.177Z,9.93
2024-03-01T00:15:43.275Z,9.77
2024-03-01T00:25:45.948Z,12.93
2024-03-01T00:35:48.763Z,10.45
2024-03-01T00:45:50.836Z,10.93
2024-03-01T00:55:52.821Z,11.80
2024-03-01T01:05:54.814Z,11.18
2024-03-01T01:15:56.816Z,8.50
2024-03-01T01:25:59.060Z,8.65
2024-03-01T01:36:01.094Z,6.20
2024-03-01T01:46:03.191Z,8.57
2024-03-01T01:56:06.775Z,9.15
2024-03-01T02:06:08.953Z,9.85
2024-03-01T02:16:11.038Z,8.65
2024-03-01T02:26:14.385Z,6.40
2024-03-01T02:36:18.866Z,9.50
2024-03-01T02:46:23.520Z,7.30
2024-03-01T02:56:25.537Z,7.47
2024-03-01T03:06:27.636Z,7.97
2024-03-01T03:16:29.815Z,8.80
2024-03-01T03:26:31.869Z,7.38
2024-03-01T03:36:33.812Z,7.10
2024-03-01T03:46:36.561Z,8.25
2024-03-01T03:56:38.532Z,9.90
2024-03-01T04:06:40.641Z,8.82
2024-03-01T04:16:42.838Z,8.27
2024-03-01T04:26:44.968Z,8.60
2024-03-01T04:36:46.959Z,9.35
2024-03-01T04:46:49.004Z,7.95
2024-03-01T04:56:51.023Z,14.45
2024-03-01T05:06:53.050Z,9.23
2024-03-01T05:16:55.105Z,9.18
2024-03-01T05:26:59.055Z,9.05
2024-03-01T05:37:01.063Z,8.45
2024-03-01T05:47:03.203Z,8.07
2024-03-01T05:57:05.466Z,8.73
2024-03-01T06:07:07.474Z,10.13
2024-03-01T06:17:09.471Z,9.50
2024-03-01T06:27:11.424Z,9.50
2024-03-01T06:37:13.457Z,9.00
2024-03-01T06:47:19.606Z,11.13
2024-03-01T06:57:22.300Z,8.48
2024-03-01T07:07:24.334Z,31.45
2024-03-01T07:17:26.330Z,54.90
2024-03-01T07:27:28.827Z,33.55
2024-03-01T07:37:31.601Z,24.33
2024-03-01T07:47:34.883Z,20.13
2024-03-01T07:57:37.054Z,24.40
2024-03-01T08:07:39.261Z,15.45
2024-03-01T08:17:41.334Z,15.20
2024-03-01T08:27:43.318Z,13.60
2024-03-01T08:37:46.123Z,14.75
2024-03-01T08:48:02.136Z,20.20
2024-03-01T08:58:04.381Z,7.32
2024-03-01T09:08:10.058Z,4.88
2024-03-01T09:28:29.911Z,4.30
2024-03-01T09:38:31.927Z,5.22
2024-03-01T09:48:58.701Z,10.35
2024-03-01T09:59:25.750Z,12.07
2024-03-01T10:10:23.710Z,6.70
2024-03-01T10:21:07.857Z,7.20
2024-03-01T10:31:43.045Z,5.43
2024-03-01T10:42:15.767Z,4.30
2024-03-01T10:52:20.941Z,3.58
2024-03-01T11:13:00.887Z,8.95
2024-03-01T11:23:30.012Z,8.25
2024-03-01T11:33:35.432Z,4.07
2024-03-01T11:44:19.393Z,6.28
2024-03-01T11:55:03.128Z,14.88
2024-03-01T12:05:25.417Z,3.28
2024-03-01T12:16:00.446Z,4.07
2024-03-01T12:26:04.552Z,7.32
2024-03-01T12:36:39.374Z,8.25
2024-03-01T12:47:09.557Z,6.63
2024-03-01T12:57:37.275Z,6.40
2024-03-01T13:07:42.248Z,4.68
2024-03-01T13:18:13.735Z,7.28
2024-03-01T13:28:24.168Z,4.40
2024-03-01T13:38:36.589Z,8.40
2024-03-01T13:48:41.004Z,12.38
2024-03-01T13:58:43.038Z,7.68
2024-03-01T14:08:45.048Z,6.22
2024-03-01T14:18:47.483Z,5.18
2024-03-01T14:28:50.485Z,9.73
2024-03-01T14:38:57.044Z,7.00
2024-03-01T14:49:18.940Z,3.97
2024-03-01T14:59:22.009Z,6.57
2024-03-01T15:09:24.461Z,7.80
2024-03-01T15:19:26.739Z,8.95
2024-03-01T15:29:29.320Z,8.93
2024-03-01T15:39:31.368Z,21.10
2024-03-01T15:49:33.377Z,6.00
2024-03-01T15:59:35.405Z,4.80
2024-03-01T16:09:39.205Z,4.95
2024-03-01T16:19:42.675Z,6.25
2024-03-01T16:29:44.689Z,8.77
2024-03-01T16:39:46.740Z,23.67
2024-03-01T16:49:48.794Z,23.83
2024-03-01T16:59:51.464Z,17.55
2024-03-01T17:09:53.929Z,20.88
2024-03-01T17:19:55.968Z,17.08
2024-03-01T17:29:57.944Z,11.38
2024-03-01T17:39:59.973Z,18.30
2024-03-01T17:50:02.168Z,18.40
2024-03-01T18:00:06.601Z,19.33
2024-03-01T18:10:09.841Z,14.20
2024-03-01T18:20:11.992Z,15.90
2024-03-01T18:30:14.596Z,17.33
2024-03-01T18:40:16.778Z,9.25
2024-03-01T18:50:18.894Z,10.82
2024-03-01T19:00:24.110Z,11.05
2024-03-01T19:10:26.223Z,16.98
2024-03-01T19:20:28.337Z,12.48
2024-03-01T19:30:31.397Z,12.88
2024-03-01T19:40:33.438Z,13.95
2024-03-01T19:50:35.558Z,11.80
2024-03-01T20:00:39.201Z,24.23
2024-03-01T20:10:41.373Z,22.58
2024-03-01T20:20:43.503Z,22.35
2024-03-01T20:30:45.699Z,16.40
2024-03-01T20:40:49.559Z,22.63
2024-03-01T20:50:52.835Z,10.50
2024-03-01T21:00:54.825Z,15.07
2024-03-01T21:10:56.923Z,8.60
2024-03-01T21:20:59.048Z,15.07
2024-03-01T21:31:01.046Z,9.55
2024-03-01T21:41:03.056Z,12.18
2024-03-01T21:51:05.121Z,21.90
2024-03-01T22:01:07.335Z,35.03
2024-03-01T22:11:09.399Z,8.95
2024-03-01T22:21:11.450Z,14.55
2024-03-01T22:31:14.086Z,28.40
2024-03-01T22:41:16.204Z,22.20
2024-03-01T22:51:18.430Z,8.48
2024-03-01T23:01:26.851Z,6.43
2024-03-01T23:11:42.814Z,7.60
2024-03-01T23:21:44.874Z,7.65
2024-03-01T23:31:46.887Z,8.43
2024-03-01T23:41:48.906Z,8.07
2024-03-01T23:51:50.977Z,8.02
